Glenn C — WDB9635 — position and weather

sailwx.info

Track history (hours):
 
Tides and Currents Weather Stations Pressure Air Temp Water Temp Dewpoint Dewpoint Depression Visibility Wind Speed Wind Dir Waves Ship Positions

Glenn C

Owner: C&C BOATS INC, HUNTINGTON BEACH, CA. More information available from US FCC via Universal Licensing System and Coast Guard Vessel Documentation Center.

Last reported at 2017-Nov-08 18:35 UTC. Time now 2017-Nov-21 19:16 UTC.
Position N 34°15' W 119°16'.
Warning: this ship's position is 13 days out of date.

Length 30 m.

Type: Passenger vessel. MMSI: 366979960.

Date/timePositionNaut miles runAvg speedWind from/ knotsBaromVisibWave heightAir tempDewpointWater temp
2017-Nov-08 18:35N 34°15' W 119°16'0 0.0
2017-Nov-08 18:14N 34°15' W 119°16'0 0.0
2017-Nov-08 17:59N 34°15' W 119°16'0 1.0
2017-Nov-08 17:30N 34°15' W 119°16'713.0
2017-Nov-08 16:56N 34°15' W 119°25'1013.8
2017-Nov-08 16:13N 34°19' W 119°36'713.8
2017-Nov-08 15:44N 34°21' W 119°44'10 2.7
2017-Nov-08 11:57N 34°26' W 119°55'0 0.0
2017-Nov-07 23:37N 34°26' W 119°55'2 9.6
2017-Nov-07 23:28N 34°25' W 119°56'914.8
2017-Nov-07 22:52N 34°23' W 120°07'10 5.5
2017-Nov-07 21:04N 34°26' W 119°55'0 0.1
2017-Nov-07 20:57N 34°26' W 119°55'0 0.0
2017-Nov-07 20:12N 34°26' W 119°55'0 0.0
2017-Nov-07 19:37N 34°26' W 119°55'0 0.0
2017-Nov-07 19:21N 34°26' W 119°55'0 0.0
2017-Nov-07 18:48N 34°26' W 119°55'0 0.0
2017-Nov-07 18:27N 34°26' W 119°55'0 0.2
2017-Nov-07 17:35N 34°26' W 119°55'1 7.7
2017-Nov-07 17:28N 34°25' W 119°56'1014.5
2017-Nov-07 16:48N 34°23' W 120°07'512.8
2017-Nov-07 16:27N 34°22' W 120°13'4 8.2
2017-Nov-07 16:00N 34°21' W 120°17'610.5
2017-Nov-07 15:28N 34°23' W 120°10'3 5.1
2017-Nov-07 14:58N 34°23' W 120°07'0 0.3
2017-Nov-07 14:24N 34°23' W 120°07'0 0.1
2017-Nov-07 14:00N 34°23' W 120°07'0 0.0
2017-Nov-07 13:30N 34°23' W 120°07'0 0.0
2017-Nov-07 12:57N 34°23' W 120°07'0 0.1
2017-Nov-07 12:30N 34°23' W 120°07'0 0.1
2017-Nov-07 12:00N 34°23' W 120°07'0 0.0
2017-Nov-07 11:24N 34°23' W 120°07'0 0.1
2017-Nov-07 11:00N 34°23' W 120°07'0 0.0
2017-Nov-07 10:27N 34°23' W 120°07'0 0.0
2017-Nov-07 09:54N 34°23' W 120°07'0 0.0
2017-Nov-07 09:30N 34°23' W 120°07'0 0.0
2017-Nov-07 08:57N 34°23' W 120°07'0 0.0
2017-Nov-07 08:21N 34°23' W 120°07'0 0.1
2017-Nov-07 07:54N 34°23' W 120°07'0 0.1
2017-Nov-07 07:30N 34°23' W 120°07'0 0.1
2017-Nov-07 07:00N 34°23' W 120°07'0 0.0
2017-Nov-07 06:27N 34°23' W 120°07'0 0.0
2017-Nov-07 06:00N 34°23' W 120°07'0 0.0
2017-Nov-07 05:30N 34°23' W 120°07'0 0.0
2017-Nov-07 05:00N 34°23' W 120°07'0 0.1
2017-Nov-07 04:27N 34°23' W 120°07'0 0.0
2017-Nov-07 04:00N 34°23' W 120°07'0 0.0
2017-Nov-07 03:24N 34°23' W 120°07'0 0.0
2017-Nov-07 03:00N 34°23' W 120°07'0 0.0
2017-Nov-07 02:30N 34°23' W 120°07'0 0.0
2017-Nov-07 01:57N 34°23' W 120°07'0 0.1
2017-Nov-07 01:28N 34°23' W 120°07'0 0.3
2017-Nov-07 01:00N 34°23' W 120°07'0 0.6
2017-Nov-07 00:30N 34°23' W 120°07'1515.2
2017-Nov-06 23:30N 34°18' W 119°50'815.0
2017-Nov-06 22:59N 34°15' W 119°41'814.8
2017-Nov-06 22:25N 34°13' W 119°31'513.2
2017-Nov-06 22:00N 34°11' W 119°25'814.7
2017-Nov-06 21:29N 34°09' W 119°16'3 6.5
2017-Nov-06 21:00N 34°09' W 119°12'0 0.0
2017-Nov-06 20:30N 34°09' W 119°12'0 0.0
2017-Nov-06 02:30N 34°09' W 119°12'0 0.0
2017-Nov-06 01:57N 34°09' W 119°12'0 0.0
2017-Nov-06 01:30N 34°09' W 119°12'0 0.0
2017-Nov-06 01:00N 34°09' W 119°12'0 0.0
2017-Nov-06 00:30N 34°09' W 119°12'0 0.0
2017-Nov-06 00:00N 34°09' W 119°12'0 0.0
2017-Nov-05 23:30N 34°09' W 119°12'0 0.0
2017-Nov-05 22:57N 34°09' W 119°12'0 0.0
2017-Nov-05 22:30N 34°09' W 119°12'0 0.0
2017-Nov-05 22:00N 34°09' W 119°12'0 0.1
2017-Nov-05 21:30N 34°09' W 119°12'611.7
2017-Nov-05 21:00N 34°14' W 119°16'1 1.8
2017-Nov-05 20:30N 34°14' W 119°16'3 6.0
2017-Nov-05 19:59N 34°15' W 119°19'715.1
2017-Nov-05 19:30N 34°17' W 119°28'1314.8
2017-Nov-05 18:39N 34°20' W 119°43'414.2
2017-Nov-05 18:21N 34°21' W 119°48'714.5
2017-Nov-05 17:54N 34°22' W 119°56'714.5
2017-Nov-05 17:25N 34°23' W 120°04'3 4.1
2017-Nov-05 16:44N 34°23' W 120°07'0 0.0
2017-Nov-05 16:26N 34°23' W 120°07'1 2.6
2017-Nov-05 15:59N 34°24' W 120°06'9 2.3
2017-Nov-05 12:00N 34°26' W 119°55'0 0.0
2017-Nov-05 07:36N 34°26' W 119°55'0 0.0
2017-Nov-05 07:30N 34°26' W 119°55'0 0.0
2017-Nov-05 05:33N 34°26' W 119°55'0 0.0
2017-Nov-04 21:15N 34°26' W 119°55'0 0.0
2017-Nov-04 20:04N 34°26' W 119°55'0 1.2
2017-Nov-04 19:52N 34°26' W 119°55'513.4
2017-Nov-04 19:28N 34°24' W 120°02'4 8.5
2017-Nov-04 18:56N 34°23' W 120°07'0 0.0
2017-Nov-04 18:29N 34°23' W 120°07'0 0.0
2017-Nov-04 17:58N 34°23' W 120°07'3 5.4
2017-Nov-04 17:28N 34°23' W 120°10'3 2.3
2017-Nov-04 16:22N 34°23' W 120°07'1 2.4
2017-Nov-04 16:00N 34°23' W 120°08'2 3.3
2017-Nov-04 15:30N 34°23' W 120°10'611.7
2017-Nov-04 15:00N 34°21' W 120°17'610.5
2017-Nov-04 14:28N 34°23' W 120°10'3 3.5
2017-Nov-04 13:45N 34°23' W 120°07'0 0.6
2017-Nov-04 13:23N 34°23' W 120°07'0 0.0
2017-Nov-04 12:44N 34°23' W 120°07'0 0.0
2017-Nov-04 12:17N 34°23' W 120°07'0 0.0
2017-Nov-04 11:53N 34°23' W 120°07'0 0.0
2017-Nov-04 11:29N 34°23' W 120°07'0 0.0
2017-Nov-04 10:53N 34°23' W 120°07'0 0.0
2017-Nov-04 10:26N 34°23' W 120°07'0 0.1
2017-Nov-04 09:59N 34°23' W 120°07'0 0.1
2017-Nov-04 09:29N 34°23' W 120°07'0 0.0
2017-Nov-04 08:59N 34°23' W 120°07'0 0.1
2017-Nov-04 08:29N 34°23' W 120°07'0 0.0
2017-Nov-04 07:59N 34°23' W 120°07'0 0.0
2017-Nov-04 07:29N 34°23' W 120°07'0 0.0
2017-Nov-04 06:59N 34°23' W 120°07'0 0.1
2017-Nov-04 06:20N 34°23' W 120°07'0 0.0
2017-Nov-04 05:59N 34°23' W 120°07'0 0.0
2017-Nov-04 05:26N 34°23' W 120°07'0 0.0
2017-Nov-04 04:56N 34°23' W 120°07'0 0.0
2017-Nov-04 04:29N 34°23' W 120°07'0 0.0
2017-Nov-04 03:59N 34°23' W 120°07'0 0.0
2017-Nov-04 03:20N 34°23' W 120°07'0 0.0
2017-Nov-04 02:59N 34°23' W 120°07'0 0.0
2017-Nov-04 02:17N 34°23' W 120°07'0 0.0
2017-Nov-04 01:56N 34°23' W 120°07'0 0.0
2017-Nov-04 01:17N 34°23' W 120°07'0 0.0
2017-Nov-04 00:56N 34°23' W 120°07'0 0.0
2017-Nov-04 00:29N 34°23' W 120°07'0 0.0
2017-Nov-03 23:59N 34°23' W 120°07'0 0.0
2017-Nov-03 23:29N 34°23' W 120°07'0 0.0
2017-Nov-03 22:50N 34°23' W 120°07'0 0.0
2017-Nov-03 22:20N 34°23' W 120°07'0 0.0
2017-Nov-03 21:59N 34°23' W 120°07'0 0.0
2017-Nov-03 21:23N 34°23' W 120°07'0 0.0
2017-Nov-03 20:56N 34°23' W 120°07'0 0.0
2017-Nov-03 20:29N 34°23' W 120°07'0 0.0
2017-Nov-03 19:53N 34°23' W 120°07'0 0.0
2017-Nov-03 19:26N 34°23' W 120°07'0 0.0
2017-Nov-03 18:59N 34°23' W 120°07'0 0.0
2017-Nov-03 18:29N 34°23' W 120°07'0 0.0
2017-Nov-03 17:59N 34°23' W 120°07'0 0.0
2017-Nov-03 17:29N 34°23' W 120°07'0 0.0
2017-Nov-03 16:59N 34°23' W 120°07'0 0.0
2017-Nov-03 16:29N 34°23' W 120°07'2 4.3
2017-Nov-03 16:00N 34°23' W 120°09'2 3.6
2017-Nov-03 15:28N 34°23' W 120°07'10 1.6
2017-Nov-03 08:56N 34°26' W 119°55'0 0.0
2017-Nov-03 00:50N 34°26' W 119°55'0 0.0
2017-Nov-03 00:29N 34°26' W 119°55'1013.6
2017-Nov-02 23:46N 34°23' W 120°07'0 1.0
2017-Nov-02 23:28N 34°23' W 120°07'611.7
2017-Nov-02 22:59N 34°22' W 120°14'3 5.2
2017-Nov-02 22:29N 34°21' W 120°17'1 1.4
2017-Nov-02 21:59N 34°21' W 120°16'714.3
2017-Nov-02 21:28N 34°23' W 120°07'1212.4
2017-Nov-02 20:30N 34°18' W 119°54'1915.8
2017-Nov-02 19:17N 34°12' W 119°32'615.8
2017-Nov-02 18:54N 34°10' W 119°25'615.7
2017-Nov-02 18:30N 34°09' W 119°18'5 7.4
2017-Nov-02 17:52N 34°09' W 119°12'0 0.0
2017-Nov-02 17:22N 34°09' W 119°12'0 0.0
2017-Nov-02 16:52N 34°09' W 119°12'0 0.0
2017-Nov-02 16:28N 34°09' W 119°12'0 0.0
2017-Nov-02 15:46N 34°09' W 119°12'0 0.0
2017-Nov-02 15:28N 34°09' W 119°12'0 0.0
2017-Nov-02 14:58N 34°09' W 119°12'0 0.0
2017-Nov-02 13:14N 34°09' W 119°12'0 0.0
2017-Nov-02 12:55N 34°09' W 119°12'0 0.0
2017-Nov-02 12:28N 34°09' W 119°12'0 0.0
2017-Nov-02 11:55N 34°09' W 119°12'0 0.0
2017-Nov-02 09:16N 34°09' W 119°12'0 0.0
2017-Nov-02 03:01N 34°09' W 119°12'0 0.0
2017-Nov-02 02:43N 34°09' W 119°12'0 0.0
2017-Nov-02 02:16N 34°09' W 119°12'0 0.2
2017-Nov-02 01:59N 34°09' W 119°12'1 1.8
2017-Nov-02 01:28N 34°08' W 119°13'3 6.6
2017-Nov-02 01:00N 34°10' W 119°17'915.8
2017-Nov-02 00:27N 34°14' W 119°26'1415.8
2017-Nov-01 23:33N 34°20' W 119°41'215.6
2017-Nov-01 23:24N 34°21' W 119°44'615.6
2017-Nov-01 22:59N 34°23' W 119°51'13 0.6
2017-Nov-01 02:00N 34°23' W 120°07'0 0.0
2017-Nov-01 01:27N 34°23' W 120°07'0 0.0
2017-Nov-01 00:57N 34°23' W 120°07'0 0.0
2017-Nov-01 00:24N 34°23' W 120°07'0 0.0
2017-Nov-01 00:00N 34°23' W 120°07'0 0.1
2017-Oct-31 23:24N 34°23' W 120°07'0 0.3
2017-Oct-31 22:50N 34°23' W 120°07'2 6.9
2017-Oct-31 22:29N 34°23' W 120°10'0 0.1
2017-Oct-31 21:58N 34°23' W 120°10'0 0.0
2017-Oct-31 21:29N 34°23' W 120°10'0 0.0
2017-Oct-31 20:59N 34°23' W 120°10'1111.4
2017-Oct-31 20:03N 34°25' W 119°57'2 0.5
2017-Oct-31 16:26N 34°26' W 119°55'4 7.4
2017-Oct-31 15:57N 34°24' W 119°59'714.7
2017-Oct-31 15:29N 34°23' W 120°07'714.3
2017-Oct-31 14:59N 34°21' W 120°16'5 8.5
2017-Oct-31 14:26N 34°23' W 120°10'2 5.1
2017-Oct-31 13:57N 34°23' W 120°07'0 0.3
2017-Oct-31 13:28N 34°23' W 120°07'0 0.0
2017-Oct-31 12:58N 34°23' W 120°07'0 0.0
2017-Oct-31 12:28N 34°23' W 120°07'0 0.0
2017-Oct-31 11:58N 34°23' W 120°07'0 0.0
2017-Oct-31 11:28N 34°23' W 120°07'0 0.0
2017-Oct-31 10:58N 34°23' W 120°07'0 0.0
2017-Oct-31 10:22N 34°23' W 120°07'0 0.0
2017-Oct-31 09:58N 34°23' W 120°07'0 0.0
2017-Oct-31 09:28N 34°23' W 120°07'0 0.0
2017-Oct-31 08:53N 34°23' W 120°07'0 0.0
2017-Oct-31 08:30N 34°23' W 120°07'0 0.0
2017-Oct-31 08:00N 34°23' W 120°07'0 0.0
2017-Oct-31 07:27N 34°23' W 120°07'0 0.0
2017-Oct-31 07:00N 34°23' W 120°07'0 0.0
2017-Oct-31 06:30N 34°23' W 120°07'0 0.0
2017-Oct-31 06:00N 34°23' W 120°07'0 0.0
2017-Oct-31 05:30N 34°23' W 120°07'0 0.0
2017-Oct-31 04:56N 34°23' W 120°07'0 0.0
2017-Oct-31 04:30N 34°23' W 120°07'0 0.0
2017-Oct-31 03:58N 34°23' W 120°07'0 0.0
2017-Oct-31 03:28N 34°23' W 120°07'0 0.0
2017-Oct-31 02:55N 34°23' W 120°07'0 0.0
2017-Oct-31 02:07N 34°23' W 120°07'0 0.0
2017-Oct-31 01:58N 34°23' W 120°07'0 0.0
2017-Oct-31 01:30N 34°23' W 120°07'0 0.0
2017-Oct-31 01:00N 34°23' W 120°07'0 0.0
2017-Oct-31 00:29N 34°23' W 120°07'0 0.0
2017-Oct-31 00:00N 34°23' W 120°07'0 0.0
2017-Oct-30 23:30N 34°23' W 120°07'0 0.0
2017-Oct-30 23:00N 34°23' W 120°07'0 0.4
2017-Oct-30 22:25N 34°23' W 120°07'0 0.0
2017-Oct-30 21:57N 34°23' W 120°07'1013.1
2017-Oct-30 21:11N 34°22' W 119°55'413.9
2017-Oct-30 20:54N 34°21' W 119°51'914.1
2017-Oct-30 20:15N 34°18' W 119°40'714.0
2017-Oct-30 19:47N 34°15' W 119°33'413.9
2017-Oct-30 19:30N 34°14' W 119°28'813.7
2017-Oct-30 18:55N 34°10' W 119°20'613.7
2017-Oct-30 18:30N 34°09' W 119°13'1 0.2
2017-Oct-30 14:59N 34°09' W 119°12'0 0.1
2017-Oct-30 14:00N 34°09' W 119°12'0 0.0
2017-Oct-30 13:30N 34°09' W 119°12'0 0.0
2017-Oct-30 13:00N 34°09' W 119°12'0 0.0
2017-Oct-30 12:27N 34°09' W 119°12'0 0.0
2017-Oct-30 11:57N 34°09' W 119°12'0 0.0
2017-Oct-30 11:30N 34°09' W 119°12'0 0.0
2017-Oct-30 11:00N 34°09' W 119°12'0 0.0
2017-Oct-30 10:27N 34°09' W 119°12'0 0.0
2017-Oct-30 09:57N 34°09' W 119°12'0 0.0
2017-Oct-30 09:30N 34°09' W 119°12'0 0.0
2017-Oct-30 08:51N 34°09' W 119°12'0 0.0
2017-Oct-30 08:27N 34°09' W 119°12'0 0.0
2017-Oct-30 07:54N 34°09' W 119°12'0 0.0
2017-Oct-30 07:30N 34°09' W 119°12'0 0.0
2017-Oct-30 07:00N 34°09' W 119°12'0 0.0
2017-Oct-30 06:30N 34°09' W 119°12'0 0.0
2017-Oct-30 06:00N 34°09' W 119°12'0 0.0
2017-Oct-30 05:30N 34°09' W 119°12'0 0.0
2017-Oct-30 04:57N 34°09' W 119°12'0 0.0
2017-Oct-30 04:30N 34°09' W 119°12'0 0.0
2017-Oct-30 04:00N 34°09' W 119°12'0 0.0
2017-Oct-30 03:30N 34°09' W 119°12'0 0.0
2017-Oct-30 02:54N 34°09' W 119°12'0 0.0
2017-Oct-30 02:27N 34°09' W 119°12'0 0.0
2017-Oct-30 01:51N 34°09' W 119°12'0 0.0
2017-Oct-30 01:24N 34°09' W 119°12'0 0.0
2017-Oct-30 01:00N 34°09' W 119°12'0 0.0
2017-Oct-30 00:30N 34°09' W 119°12'0 0.0
2017-Oct-30 00:00N 34°09' W 119°12'0 0.0
2017-Oct-29 23:27N 34°09' W 119°12'0 0.0
2017-Oct-29 23:00N 34°09' W 119°12'0 0.0
2017-Oct-29 22:30N 34°09' W 119°12'0 0.0
2017-Oct-29 21:57N 34°09' W 119°12'0 0.0
2017-Oct-29 21:30N 34°09' W 119°12'5 8.9
2017-Oct-29 20:59N 34°10' W 119°18'713.6
2017-Oct-29 20:27N 34°13' W 119°26'713.6
2017-Oct-29 19:57N 34°16' W 119°33'613.7
2017-Oct-29 19:29N 34°18' W 119°40'913.5
2017-Oct-29 18:49N 34°20' W 119°51'  
Track history (hours):
 
Tides and Currents Weather Stations Pressure Air Temp Water Temp Dewpoint Dewpoint Depression Visibility Wind Speed Wind Dir Waves Ship Positions

Glenn C

Owner: C&C BOATS INC, HUNTINGTON BEACH, CA. More information available from US FCC via Universal Licensing System and Coast Guard Vessel Documentation Center.

Last reported at 2017-Nov-08 18:35 UTC. Time now 2017-Nov-21 19:16 UTC.
Position N 34°15' W 119°16'.
Warning: this ship's position is 13 days out of date.

Length 30 m.

Type: Passenger vessel. MMSI: 366979960.

Date/timePositionNaut miles runAvg speedWind from/ knotsBaromVisibWave heightAir tempDewpointWater temp
2017-Nov-08 18:35N 34°15' W 119°16'0 0.0
2017-Nov-08 18:14N 34°15' W 119°16'0 0.0
2017-Nov-08 17:59N 34°15' W 119°16'0 1.0
2017-Nov-08 17:30N 34°15' W 119°16'713.0
2017-Nov-08 16:56N 34°15' W 119°25'1013.8
2017-Nov-08 16:13N 34°19' W 119°36'713.8
2017-Nov-08 15:44N 34°21' W 119°44'10 2.7
2017-Nov-08 11:57N 34°26' W 119°55'0 0.0
2017-Nov-07 23:37N 34°26' W 119°55'2 9.6
2017-Nov-07 23:28N 34°25' W 119°56'914.8
2017-Nov-07 22:52N 34°23' W 120°07'10 5.5
2017-Nov-07 21:04N 34°26' W 119°55'0 0.1
2017-Nov-07 20:57N 34°26' W 119°55'0 0.0
2017-Nov-07 20:12N 34°26' W 119°55'0 0.0
2017-Nov-07 19:37N 34°26' W 119°55'0 0.0
2017-Nov-07 19:21N 34°26' W 119°55'0 0.0
2017-Nov-07 18:48N 34°26' W 119°55'0 0.0
2017-Nov-07 18:27N 34°26' W 119°55'0 0.2
2017-Nov-07 17:35N 34°26' W 119°55'1 7.7
2017-Nov-07 17:28N 34°25' W 119°56'1014.5
2017-Nov-07 16:48N 34°23' W 120°07'512.8
2017-Nov-07 16:27N 34°22' W 120°13'4 8.2
2017-Nov-07 16:00N 34°21' W 120°17'610.5
2017-Nov-07 15:28N 34°23' W 120°10'3 5.1
2017-Nov-07 14:58N 34°23' W 120°07'0 0.3
2017-Nov-07 14:24N 34°23' W 120°07'0 0.1
2017-Nov-07 14:00N 34°23' W 120°07'0 0.0
2017-Nov-07 13:30N 34°23' W 120°07'0 0.0
2017-Nov-07 12:57N 34°23' W 120°07'0 0.1
2017-Nov-07 12:30N 34°23' W 120°07'0 0.1
2017-Nov-07 12:00N 34°23' W 120°07'0 0.0
2017-Nov-07 11:24N 34°23' W 120°07'0 0.1
2017-Nov-07 11:00N 34°23' W 120°07'0 0.0
2017-Nov-07 10:27N 34°23' W 120°07'0 0.0
2017-Nov-07 09:54N 34°23' W 120°07'0 0.0
2017-Nov-07 09:30N 34°23' W 120°07'0 0.0
2017-Nov-07 08:57N 34°23' W 120°07'0 0.0
2017-Nov-07 08:21N 34°23' W 120°07'0 0.1
2017-Nov-07 07:54N 34°23' W 120°07'0 0.1
2017-Nov-07 07:30N 34°23' W 120°07'0 0.1
2017-Nov-07 07:00N 34°23' W 120°07'0 0.0
2017-Nov-07 06:27N 34°23' W 120°07'0 0.0
2017-Nov-07 06:00N 34°23' W 120°07'0 0.0
2017-Nov-07 05:30N 34°23' W 120°07'0 0.0
2017-Nov-07 05:00N 34°23' W 120°07'0 0.1
2017-Nov-07 04:27N 34°23' W 120°07'0 0.0
2017-Nov-07 04:00N 34°23' W 120°07'0 0.0
2017-Nov-07 03:24N 34°23' W 120°07'0 0.0
2017-Nov-07 03:00N 34°23' W 120°07'0 0.0
2017-Nov-07 02:30N 34°23' W 120°07'0 0.0
2017-Nov-07 01:57N 34°23' W 120°07'0 0.1
2017-Nov-07 01:28N 34°23' W 120°07'0 0.3
2017-Nov-07 01:00N 34°23' W 120°07'0 0.6
2017-Nov-07 00:30N 34°23' W 120°07'1515.2
2017-Nov-06 23:30N 34°18' W 119°50'815.0
2017-Nov-06 22:59N 34°15' W 119°41'814.8
2017-Nov-06 22:25N 34°13' W 119°31'513.2
2017-Nov-06 22:00N 34°11' W 119°25'814.7
2017-Nov-06 21:29N 34°09' W 119°16'3 6.5
2017-Nov-06 21:00N 34°09' W 119°12'0 0.0
2017-Nov-06 20:30N 34°09' W 119°12'0 0.0
2017-Nov-06 02:30N 34°09' W 119°12'0 0.0
2017-Nov-06 01:57N 34°09' W 119°12'0 0.0
2017-Nov-06 01:30N 34°09' W 119°12'0 0.0
2017-Nov-06 01:00N 34°09' W 119°12'0 0.0
2017-Nov-06 00:30N 34°09' W 119°12'0 0.0
2017-Nov-06 00:00N 34°09' W 119°12'0 0.0
2017-Nov-05 23:30N 34°09' W 119°12'0 0.0
2017-Nov-05 22:57N 34°09' W 119°12'0 0.0
2017-Nov-05 22:30N 34°09' W 119°12'0 0.0
2017-Nov-05 22:00N 34°09' W 119°12'0 0.1
2017-Nov-05 21:30N 34°09' W 119°12'611.7
2017-Nov-05 21:00N 34°14' W 119°16'1 1.8
2017-Nov-05 20:30N 34°14' W 119°16'3 6.0
2017-Nov-05 19:59N 34°15' W 119°19'715.1
2017-Nov-05 19:30N 34°17' W 119°28'1314.8
2017-Nov-05 18:39N 34°20' W 119°43'414.2
2017-Nov-05 18:21N 34°21' W 119°48'714.5
2017-Nov-05 17:54N 34°22' W 119°56'714.5
2017-Nov-05 17:25N 34°23' W 120°04'3 4.1
2017-Nov-05 16:44N 34°23' W 120°07'0 0.0
2017-Nov-05 16:26N 34°23' W 120°07'1 2.6
2017-Nov-05 15:59N 34°24' W 120°06'9 2.3
2017-Nov-05 12:00N 34°26' W 119°55'0 0.0
2017-Nov-05 07:36N 34°26' W 119°55'0 0.0
2017-Nov-05 07:30N 34°26' W 119°55'0 0.0
2017-Nov-05 05:33N 34°26' W 119°55'0 0.0
2017-Nov-04 21:15N 34°26' W 119°55'0 0.0
2017-Nov-04 20:04N 34°26' W 119°55'0 1.2
2017-Nov-04 19:52N 34°26' W 119°55'513.4
2017-Nov-04 19:28N 34°24' W 120°02'4 8.5
2017-Nov-04 18:56N 34°23' W 120°07'0 0.0
2017-Nov-04 18:29N 34°23' W 120°07'0 0.0
2017-Nov-04 17:58N 34°23' W 120°07'3 5.4
2017-Nov-04 17:28N 34°23' W 120°10'3 2.3
2017-Nov-04 16:22N 34°23' W 120°07'1 2.4
2017-Nov-04 16:00N 34°23' W 120°08'2 3.3
2017-Nov-04 15:30N 34°23' W 120°10'611.7
2017-Nov-04 15:00N 34°21' W 120°17'610.5
2017-Nov-04 14:28N 34°23' W 120°10'3 3.5
2017-Nov-04 13:45N 34°23' W 120°07'0 0.6
2017-Nov-04 13:23N 34°23' W 120°07'0 0.0
2017-Nov-04 12:44N 34°23' W 120°07'0 0.0
2017-Nov-04 12:17N 34°23' W 120°07'0 0.0
2017-Nov-04 11:53N 34°23' W 120°07'0 0.0
2017-Nov-04 11:29N 34°23' W 120°07'0 0.0
2017-Nov-04 10:53N 34°23' W 120°07'0 0.0
2017-Nov-04 10:26N 34°23' W 120°07'0 0.1
2017-Nov-04 09:59N 34°23' W 120°07'0 0.1
2017-Nov-04 09:29N 34°23' W 120°07'0 0.0
2017-Nov-04 08:59N 34°23' W 120°07'0 0.1
2017-Nov-04 08:29N 34°23' W 120°07'0 0.0
2017-Nov-04 07:59N 34°23' W 120°07'0 0.0
2017-Nov-04 07:29N 34°23' W 120°07'0 0.0
2017-Nov-04 06:59N 34°23' W 120°07'0 0.1
2017-Nov-04 06:20N 34°23' W 120°07'0 0.0
2017-Nov-04 05:59N 34°23' W 120°07'0 0.0
2017-Nov-04 05:26N 34°23' W 120°07'0 0.0
2017-Nov-04 04:56N 34°23' W 120°07'0 0.0
2017-Nov-04 04:29N 34°23' W 120°07'0 0.0
2017-Nov-04 03:59N 34°23' W 120°07'0 0.0
2017-Nov-04 03:20N 34°23' W 120°07'0 0.0
2017-Nov-04 02:59N 34°23' W 120°07'0 0.0
2017-Nov-04 02:17N 34°23' W 120°07'0 0.0
2017-Nov-04 01:56N 34°23' W 120°07'0 0.0
2017-Nov-04 01:17N 34°23' W 120°07'0 0.0
2017-Nov-04 00:56N 34°23' W 120°07'0 0.0
2017-Nov-04 00:29N 34°23' W 120°07'0 0.0
2017-Nov-03 23:59N 34°23' W 120°07'0 0.0
2017-Nov-03 23:29N 34°23' W 120°07'0 0.0
2017-Nov-03 22:50N 34°23' W 120°07'0 0.0
2017-Nov-03 22:20N 34°23' W 120°07'0 0.0
2017-Nov-03 21:59N 34°23' W 120°07'0 0.0
2017-Nov-03 21:23N 34°23' W 120°07'0 0.0
2017-Nov-03 20:56N 34°23' W 120°07'0 0.0
2017-Nov-03 20:29N 34°23' W 120°07'0 0.0
2017-Nov-03 19:53N 34°23' W 120°07'0 0.0
2017-Nov-03 19:26N 34°23' W 120°07'0 0.0
2017-Nov-03 18:59N 34°23' W 120°07'0 0.0
2017-Nov-03 18:29N 34°23' W 120°07'0 0.0
2017-Nov-03 17:59N 34°23' W 120°07'0 0.0
2017-Nov-03 17:29N 34°23' W 120°07'0 0.0
2017-Nov-03 16:59N 34°23' W 120°07'0 0.0
2017-Nov-03 16:29N 34°23' W 120°07'2 4.3
2017-Nov-03 16:00N 34°23' W 120°09'2 3.6
2017-Nov-03 15:28N 34°23' W 120°07'10 1.6
2017-Nov-03 08:56N 34°26' W 119°55'0 0.0
2017-Nov-03 00:50N 34°26' W 119°55'0 0.0
2017-Nov-03 00:29N 34°26' W 119°55'1013.6
2017-Nov-02 23:46N 34°23' W 120°07'0 1.0
2017-Nov-02 23:28N 34°23' W 120°07'611.7
2017-Nov-02 22:59N 34°22' W 120°14'3 5.2
2017-Nov-02 22:29N 34°21' W 120°17'1 1.4
2017-Nov-02 21:59N 34°21' W 120°16'714.3
2017-Nov-02 21:28N 34°23' W 120°07'1212.4
2017-Nov-02 20:30N 34°18' W 119°54'1915.8
2017-Nov-02 19:17N 34°12' W 119°32'615.8
2017-Nov-02 18:54N 34°10' W 119°25'615.7
2017-Nov-02 18:30N 34°09' W 119°18'5 7.4
2017-Nov-02 17:52N 34°09' W 119°12'0 0.0
2017-Nov-02 17:22N 34°09' W 119°12'0 0.0
2017-Nov-02 16:52N 34°09' W 119°12'0 0.0
2017-Nov-02 16:28N 34°09' W 119°12'0 0.0
2017-Nov-02 15:46N 34°09' W 119°12'0 0.0
2017-Nov-02 15:28N 34°09' W 119°12'0 0.0
2017-Nov-02 14:58N 34°09' W 119°12'0 0.0
2017-Nov-02 13:14N 34°09' W 119°12'0 0.0
2017-Nov-02 12:55N 34°09' W 119°12'0 0.0
2017-Nov-02 12:28N 34°09' W 119°12'0 0.0
2017-Nov-02 11:55N 34°09' W 119°12'0 0.0
2017-Nov-02 09:16N 34°09' W 119°12'0 0.0
2017-Nov-02 03:01N 34°09' W 119°12'0 0.0
2017-Nov-02 02:43N 34°09' W 119°12'0 0.0
2017-Nov-02 02:16N 34°09' W 119°12'0 0.2
2017-Nov-02 01:59N 34°09' W 119°12'1 1.8
2017-Nov-02 01:28N 34°08' W 119°13'3 6.6
2017-Nov-02 01:00N 34°10' W 119°17'915.8
2017-Nov-02 00:27N 34°14' W 119°26'1415.8
2017-Nov-01 23:33N 34°20' W 119°41'215.6
2017-Nov-01 23:24N 34°21' W 119°44'615.6
2017-Nov-01 22:59N 34°23' W 119°51'13 0.6
2017-Nov-01 02:00N 34°23' W 120°07'0 0.0
2017-Nov-01 01:27N 34°23' W 120°07'0 0.0
2017-Nov-01 00:57N 34°23' W 120°07'0 0.0
2017-Nov-01 00:24N 34°23' W 120°07'0 0.0
2017-Nov-01 00:00N 34°23' W 120°07'0 0.1
2017-Oct-31 23:24N 34°23' W 120°07'0 0.3
2017-Oct-31 22:50N 34°23' W 120°07'2 6.9
2017-Oct-31 22:29N 34°23' W 120°10'0 0.1
2017-Oct-31 21:58N 34°23' W 120°10'0 0.0
2017-Oct-31 21:29N 34°23' W 120°10'0 0.0
2017-Oct-31 20:59N 34°23' W 120°10'1111.4
2017-Oct-31 20:03N 34°25' W 119°57'2 0.5
2017-Oct-31 16:26N 34°26' W 119°55'4 7.4
2017-Oct-31 15:57N 34°24' W 119°59'714.7
2017-Oct-31 15:29N 34°23' W 120°07'714.3
2017-Oct-31 14:59N 34°21' W 120°16'5 8.5
2017-Oct-31 14:26N 34°23' W 120°10'2 5.1
2017-Oct-31 13:57N 34°23' W 120°07'0 0.3
2017-Oct-31 13:28N 34°23' W 120°07'0 0.0
2017-Oct-31 12:58N 34°23' W 120°07'0 0.0
2017-Oct-31 12:28N 34°23' W 120°07'0 0.0
2017-Oct-31 11:58N 34°23' W 120°07'0 0.0
2017-Oct-31 11:28N 34°23' W 120°07'0 0.0
2017-Oct-31 10:58N 34°23' W 120°07'0 0.0
2017-Oct-31 10:22N 34°23' W 120°07'0 0.0
2017-Oct-31 09:58N 34°23' W 120°07'0 0.0
2017-Oct-31 09:28N 34°23' W 120°07'0 0.0
2017-Oct-31 08:53N 34°23' W 120°07'0 0.0
2017-Oct-31 08:30N 34°23' W 120°07'0 0.0
2017-Oct-31 08:00N 34°23' W 120°07'0 0.0
2017-Oct-31 07:27N 34°23' W 120°07'0 0.0
2017-Oct-31 07:00N 34°23' W 120°07'0 0.0
2017-Oct-31 06:30N 34°23' W 120°07'0 0.0
2017-Oct-31 06:00N 34°23' W 120°07'0 0.0
2017-Oct-31 05:30N 34°23' W 120°07'0 0.0
2017-Oct-31 04:56N 34°23' W 120°07'0 0.0
2017-Oct-31 04:30N 34°23' W 120°07'0 0.0
2017-Oct-31 03:58N 34°23' W 120°07'0 0.0
2017-Oct-31 03:28N 34°23' W 120°07'0 0.0
2017-Oct-31 02:55N 34°23' W 120°07'0 0.0
2017-Oct-31 02:07N 34°23' W 120°07'0 0.0
2017-Oct-31 01:58N 34°23' W 120°07'0 0.0
2017-Oct-31 01:30N 34°23' W 120°07'0 0.0
2017-Oct-31 01:00N 34°23' W 120°07'0 0.0
2017-Oct-31 00:29N 34°23' W 120°07'0 0.0
2017-Oct-31 00:00N 34°23' W 120°07'0 0.0
2017-Oct-30 23:30N 34°23' W 120°07'0 0.0
2017-Oct-30 23:00N 34°23' W 120°07'0 0.4
2017-Oct-30 22:25N 34°23' W 120°07'0 0.0
2017-Oct-30 21:57N 34°23' W 120°07'1013.1
2017-Oct-30 21:11N 34°22' W 119°55'413.9
2017-Oct-30 20:54N 34°21' W 119°51'914.1
2017-Oct-30 20:15N 34°18' W 119°40'714.0
2017-Oct-30 19:47N 34°15' W 119°33'413.9
2017-Oct-30 19:30N 34°14' W 119°28'813.7
2017-Oct-30 18:55N 34°10' W 119°20'613.7
2017-Oct-30 18:30N 34°09' W 119°13'1 0.2
2017-Oct-30 14:59N 34°09' W 119°12'0 0.1
2017-Oct-30 14:00N 34°09' W 119°12'0 0.0
2017-Oct-30 13:30N 34°09' W 119°12'0 0.0
2017-Oct-30 13:00N 34°09' W 119°12'0 0.0
2017-Oct-30 12:27N 34°09' W 119°12'0 0.0
2017-Oct-30 11:57N 34°09' W 119°12'0 0.0
2017-Oct-30 11:30N 34°09' W 119°12'0 0.0
2017-Oct-30 11:00N 34°09' W 119°12'0 0.0
2017-Oct-30 10:27N 34°09' W 119°12'0 0.0
2017-Oct-30 09:57N 34°09' W 119°12'0 0.0
2017-Oct-30 09:30N 34°09' W 119°12'0 0.0
2017-Oct-30 08:51N 34°09' W 119°12'0 0.0
2017-Oct-30 08:27N 34°09' W 119°12'0 0.0
2017-Oct-30 07:54N 34°09' W 119°12'0 0.0
2017-Oct-30 07:30N 34°09' W 119°12'0 0.0
2017-Oct-30 07:00N 34°09' W 119°12'0 0.0
2017-Oct-30 06:30N 34°09' W 119°12'0 0.0
2017-Oct-30 06:00N 34°09' W 119°12'0 0.0
2017-Oct-30 05:30N 34°09' W 119°12'0 0.0
2017-Oct-30 04:57N 34°09' W 119°12'0 0.0
2017-Oct-30 04:30N 34°09' W 119°12'0 0.0
2017-Oct-30 04:00N 34°09' W 119°12'0 0.0
2017-Oct-30 03:30N 34°09' W 119°12'0 0.0
2017-Oct-30 02:54N 34°09' W 119°12'0 0.0
2017-Oct-30 02:27N 34°09' W 119°12'0 0.0
2017-Oct-30 01:51N 34°09' W 119°12'0 0.0
2017-Oct-30 01:24N 34°09' W 119°12'0 0.0
2017-Oct-30 01:00N 34°09' W 119°12'0 0.0
2017-Oct-30 00:30N 34°09' W 119°12'0 0.0
2017-Oct-30 00:00N 34°09' W 119°12'0 0.0
2017-Oct-29 23:27N 34°09' W 119°12'0 0.0
2017-Oct-29 23:00N 34°09' W 119°12'0 0.0
2017-Oct-29 22:30N 34°09' W 119°12'0 0.0
2017-Oct-29 21:57N 34°09' W 119°12'0 0.0
2017-Oct-29 21:30N 34°09' W 119°12'5 8.9
2017-Oct-29 20:59N 34°10' W 119°18'713.6
2017-Oct-29 20:27N 34°13' W 119°26'713.6
2017-Oct-29 19:57N 34°16' W 119°33'613.7
2017-Oct-29 19:29N 34°18' W 119°40'913.5
2017-Oct-29 18:49N 34°20' W 119°51'  

Dump ship's entire track history